sensor_id;sensor_type;location;lat;lon;timestamp;pressure;altitude;pressure_sealevel;temperature;humidity
72707;BME280;62517;62.630;17.936;2022-09-13T06:03:46;100226.64;;;19.14;41.24
72707;BME280;62517;62.630;17.936;2022-09-13T06:06:15;100222.37;;;19.09;40.90
72707;BME280;62517;62.630;17.936;2022-09-13T06:08:44;100224.04;;;19.09;40.81
72707;BME280;62517;62.630;17.936;2022-09-13T06:11:15;100216.87;;;19.09;40.59
72707;BME280;62517;62.630;17.936;2022-09-13T06:13:43;100220.18;;;19.22;40.44
72707;BME280;62517;62.630;17.936;2022-09-13T06:16:12;100216.24;;;19.36;40.20
72707;BME280;62517;62.630;17.936;2022-09-13T06:18:41;100216.43;;;19.36;40.09
72707;BME280;62517;62.630;17.936;2022-09-13T06:21:13;100212.46;;;19.63;39.95
72707;BME280;62517;62.630;17.936;2022-09-13T06:23:42;100213.91;;;19.94;39.75
72707;BME280;62517;62.630;17.936;2022-09-13T06:26:15;100212.77;;;20.27;39.65
72707;BME280;62517;62.630;17.936;2022-09-13T06:28:46;100211.33;;;20.56;39.36
72707;BME280;62517;62.630;17.936;2022-09-13T06:31:18;100209.07;;;20.71;39.01
72707;BME280;62517;62.630;17.936;2022-09-13T06:33:47;100208.11;;;20.89;38.83
72707;BME280;62517;62.630;17.936;2022-09-13T06:36:17;100205.13;;;21.31;38.75
72707;BME280;62517;62.630;17.936;2022-09-13T06:38:47;100206.55;;;21.40;38.51
72707;BME280;62517;62.630;17.936;2022-09-13T06:41:18;100203.05;;;21.72;38.29
72707;BME280;62517;62.630;17.936;2022-09-13T06:43:52;100204.48;;;21.87;38.08
72707;BME280;62517;62.630;17.936;2022-09-13T06:46:21;100197.05;;;21.97;37.92
72707;BME280;62517;62.630;17.936;2022-09-13T06:48:49;100198.86;;;22.32;37.82
72707;BME280;62517;62.630;17.936;2022-09-13T06:51:21;100198.18;;;22.19;37.52
72707;BME280;62517;62.630;17.936;2022-09-13T06:53:51;100196.43;;;22.57;37.65
72707;BME280;62517;62.630;17.936;2022-09-13T06:56:21;100189.26;;;22.61;37.68
72707;BME280;62517;62.630;17.936;2022-09-13T06:58:50;100195.65;;;22.73;37.73
72707;BME280;62517;62.630;17.936;2022-09-13T07:01:20;100191.99;;;22.80;37.70
72707;BME280;62517;62.630;17.936;2022-09-13T07:03:52;100193.74;;;23.07;37.60
72707;BME280;62517;62.630;17.936;2022-09-13T07:06:23;100191.67;;;23.03;37.50
72707;BME280;62517;62.630;17.936;2022-09-13T07:08:52;100190.86;;;23.12;37.28
72707;BME280;62517;62.630;17.936;2022-09-13T07:11:23;100186.74;;;23.10;37.32
72707;BME280;62517;62.630;17.936;2022-09-13T07:13:53;100183.29;;;23.41;37.16
72707;BME280;62517;62.630;17.936;2022-09-13T07:16:24;100181.48;;;23.44;37.13
72707;BME280;62517;62.630;17.936;2022-09-13T07:18:55;100177.04;;;23.45;36.99
72707;BME280;62517;62.630;17.936;2022-09-13T07:21:25;100177.32;;;23.67;37.01
72707;BME280;62517;62.630;17.936;2022-09-13T07:23:55;100177.75;;;23.69;37.00
72707;BME280;62517;62.630;17.936;2022-09-13T07:26:24;100177.80;;;23.68;36.90
72707;BME280;62517;62.630;17.936;2022-09-13T07:28:55;100178.75;;;23.89;36.84
72707;BME280;62517;62.630;17.936;2022-09-13T07:31:26;100177.19;;;24.00;36.74
72707;BME280;62517;62.630;17.936;2022-09-13T07:33:57;100177.40;;;23.85;36.61
72707;BME280;62517;62.630;17.936;2022-09-13T07:36:29;100176.43;;;24.04;36.73
72707;BME280;62517;62.630;17.936;2022-09-13T07:38:59;100179.98;;;24.01;36.73
72707;BME280;62517;62.630;17.936;2022-09-13T07:41:29;100175.14;;;24.14;36.63
72707;BME280;62517;62.630;17.936;2022-09-13T07:43:58;100179.70;;;24.20;36.59
72707;BME280;62517;62.630;17.936;2022-09-13T07:46:29;100176.73;;;24.19;36.49
72707;BME280;62517;62.630;17.936;2022-09-13T07:49:00;100185.17;;;24.30;36.53
72707;BME280;62517;62.630;17.936;2022-09-13T07:51:30;100183.93;;;24.35;36.47
72707;BME280;62517;62.630;17.936;2022-09-13T07:54:01;100174.95;;;24.41;36.36
72707;BME280;62517;62.630;17.936;2022-09-13T07:56:33;100179.48;;;24.39;36.40
72707;BME280;62517;62.630;17.936;2022-09-13T07:59:04;100178.43;;;24.38;36.32
72707;BME280;62517;62.630;17.936;2022-09-13T08:01:36;100175.53;;;24.45;36.33
72707;BME280;62517;62.630;17.936;2022-09-13T08:04:06;100172.08;;;24.57;36.27
72707;BME280;62517;62.630;17.936;2022-09-13T08:06:36;100169.70;;;24.52;36.26
72707;BME280;62517;62.630;17.936;2022-09-13T08:09:07;100169.38;;;24.54;36.17
72707;BME280;62517;62.630;17.936;2022-09-13T08:11:38;100161.34;;;24.57;36.07
72707;BME280;62517;62.630;17.936;2022-09-13T08:14:08;100161.94;;;24.67;36.16
72707;BME280;62517;62.630;17.936;2022-09-13T08:16:38;100160.27;;;24.54;35.95
72707;BME280;62517;62.630;17.936;2022-09-13T08:19:11;100152.44;;;24.71;36.06
72707;BME280;62517;62.630;17.936;2022-09-13T08:21:41;100155.14;;;24.75;35.99
72707;BME280;62517;62.630;17.936;2022-09-13T08:24:14;100138.00;;;24.71;35.93
72707;BME280;62517;62.630;17.936;2022-09-13T08:26:44;100142.04;;;24.76;36.02
72707;BME280;62517;62.630;17.936;2022-09-13T08:29:15;100134.64;;;24.71;36.03
72707;BME280;62517;62.630;17.936;2022-09-13T08:31:44;100136.57;;;24.87;35.95
72707;BME280;62517;62.630;17.936;2022-09-13T08:34:18;100133.67;;;24.80;35.93
72707;BME280;62517;62.630;17.936;2022-09-13T08:36:46;100132.42;;;24.86;35.93
72707;BME280;62517;62.630;17.936;2022-09-13T08:39:16;100136.63;;;24.80;35.92
72707;BME280;62517;62.630;17.936;2022-09-13T08:42:23;100130.08;;;24.80;35.79
72707;BME280;62517;62.630;17.936;2022-09-13T08:44:58;100132.72;;;24.97;35.66
72707;BME280;62517;62.630;17.936;2022-09-13T08:47:34;100127.88;;;24.86;35.66
72707;BME280;62517;62.630;17.936;2022-09-13T08:50:13;100129.86;;;24.90;35.54
72707;BME280;62517;62.630;17.936;2022-09-13T08:52:49;100122.26;;;24.93;35.77
72707;BME280;62517;62.630;17.936;2022-09-13T08:55:27;100126.06;;;25.02;35.72
72707;BME280;62517;62.630;17.936;2022-09-13T08:58:07;100124.80;;;24.90;35.51
72707;BME280;62517;62.630;17.936;2022-09-13T09:00:41;100114.76;;;25.08;35.74
72707;BME280;62517;62.630;17.936;2022-09-13T09:03:20;100114.13;;;25.03;35.65
72707;BME280;62517;62.630;17.936;2022-09-13T09:05:52;100113.70;;;25.13;35.62
72707;BME280;62517;62.630;17.936;2022-09-13T09:08:28;100113.46;;;25.10;35.68
72707;BME280;62517;62.630;17.936;2022-09-13T09:11:02;100110.30;;;25.10;35.66
72707;BME280;62517;62.630;17.936;2022-09-13T09:13:35;100109.32;;;25.15;35.61
72707;BME280;62517;62.630;17.936;2022-09-13T09:16:14;100101.90;;;25.22;35.49
72707;BME280;62517;62.630;17.936;2022-09-13T09:18:46;100097.72;;;25.17;35.63
72707;BME280;62517;62.630;17.936;2022-09-13T09:21:17;100093.74;;;25.17;35.60
72707;BME280;62517;62.630;17.936;2022-09-13T09:23:49;100093.36;;;25.18;35.72
72707;BME280;62517;62.630;17.936;2022-09-13T09:26:20;100089.57;;;25.27;35.65
72707;BME280;62517;62.630;17.936;2022-09-13T09:28:53;100087.39;;;25.33;35.70
72707;BME280;62517;62.630;17.936;2022-09-13T09:31:30;100089.27;;;25.15;35.47
72707;BME280;62517;62.630;17.936;2022-09-13T09:34:10;100085.68;;;25.33;35.51
72707;BME280;62517;62.630;17.936;2022-09-13T09:36:49;100084.86;;;25.42;35.50
72707;BME280;62517;62.630;17.936;2022-09-13T09:39:21;100081.17;;;25.34;35.53
72707;BME280;62517;62.630;17.936;2022-09-13T09:41:55;100083.53;;;25.29;35.45
72707;BME280;62517;62.630;17.936;2022-09-13T09:44:26;100083.93;;;25.47;35.41
72707;BME280;62517;62.630;17.936;2022-09-13T09:46:59;100088.81;;;25.34;35.51
72707;BME280;62517;62.630;17.936;2022-09-13T09:49:34;100081.98;;;25.43;35.57
72707;BME280;62517;62.630;17.936;2022-09-13T09:52:06;100081.70;;;25.42;35.48
72707;BME280;62517;62.630;17.936;2022-09-13T09:54:37;100069.32;;;25.41;35.50
72707;BME280;62517;62.630;17.936;2022-09-13T09:57:06;100078.01;;;25.46;35.60
72707;BME280;62517;62.630;17.936;2022-09-13T09:59:35;100077.08;;;25.48;35.57
72707;BME280;62517;62.630;17.936;2022-09-13T10:03:18;100072.54;;;25.35;35.37
72707;BME280;62517;62.630;17.936;2022-09-13T10:05:47;100074.00;;;25.54;35.35
72707;BME280;62517;62.630;17.936;2022-09-13T10:08:25;100071.76;;;25.58;35.39
72707;BME280;62517;62.630;17.936;2022-09-13T10:10:56;100063.47;;;25.64;35.41
72707;BME280;62517;62.630;17.936;2022-09-13T10:13:27;100071.01;;;25.54;35.37
72707;BME280;62517;62.630;17.936;2022-09-13T10:15:57;100062.36;;;25.67;35.24
72707;BME280;62517;62.630;17.936;2022-09-13T10:18:26;100064.17;;;25.64;35.44
72707;BME280;62517;62.630;17.936;2022-09-13T10:21:01;100064.75;;;25.59;35.44
72707;BME280;62517;62.630;17.936;2022-09-13T10:23:30;100059.17;;;25.66;35.29
72707;BME280;62517;62.630;17.936;2022-09-13T10:26:03;100059.95;;;25.72;35.38
72707;BME280;62517;62.630;17.936;2022-09-13T10:28:34;100055.60;;;25.61;35.32
72707;BME280;62517;62.630;17.936;2022-09-13T10:31:06;100057.18;;;25.73;35.39
72707;BME280;62517;62.630;17.936;2022-09-13T10:33:37;100052.56;;;25.76;35.38
72707;BME280;62517;62.630;17.936;2022-09-13T10:36:12;100049.77;;;25.65;35.35
72707;BME280;62517;62.630;17.936;2022-09-13T10:38:48;100043.03;;;25.83;35.29
72707;BME280;62517;62.630;17.936;2022-09-13T10:41:22;100044.16;;;25.68;35.25
72707;BME280;62517;62.630;17.936;2022-09-13T10:43:56;100042.57;;;25.77;35.34
72707;BME280;62517;62.630;17.936;2022-09-13T10:46:26;100039.35;;;25.69;35.30
72707;BME280;62517;62.630;17.936;2022-09-13T10:48:56;100041.92;;;25.84;35.36
72707;BME280;62517;62.630;17.936;2022-09-13T10:51:34;100041.21;;;25.86;35.34
72707;BME280;62517;62.630;17.936;2022-09-13T10:54:15;100040.81;;;25.92;35.33
72707;BME280;62517;62.630;17.936;2022-09-13T10:56:45;100039.42;;;25.75;35.13
72707;BME280;62517;62.630;17.936;2022-09-13T10:59:19;100031.23;;;25.79;35.23
72707;BME280;62517;62.630;17.936;2022-09-13T11:01:58;100029.29;;;25.82;35.50
72707;BME280;62517;62.630;17.936;2022-09-13T11:05:10;100025.59;;;25.94;35.35
72707;BME280;62517;62.630;17.936;2022-09-13T11:07:51;100033.23;;;25.87;35.34
72707;BME280;62517;62.630;17.936;2022-09-13T11:10:26;100030.21;;;25.97;35.28
72707;BME280;62517;62.630;17.936;2022-09-13T11:13:03;100017.66;;;25.83;35.24
72707;BME280;62517;62.630;17.936;2022-09-13T11:15:45;100017.72;;;25.91;35.32
72707;BME280;62517;62.630;17.936;2022-09-13T11:18:26;100012.13;;;25.87;35.29
72707;BME280;62517;62.630;17.936;2022-09-13T11:21:05;100008.91;;;25.85;35.20
72707;BME280;62517;62.630;17.936;2022-09-13T11:23:49;100007.05;;;25.90;35.18
72707;BME280;62517;62.630;17.936;2022-09-13T11:26:29;99999.91;;;25.84;35.16
72707;BME280;62517;62.630;17.936;2022-09-13T11:29:17;100005.19;;;25.90;35.05
72707;BME280;62517;62.630;17.936;2022-09-13T11:31:58;99996.04;;;25.82;34.98
72707;BME280;62517;62.630;17.936;2022-09-13T11:34:35;99997.42;;;25.80;35.03
72707;BME280;62517;62.630;17.936;2022-09-13T11:37:17;99993.17;;;25.90;34.94
72707;BME280;62517;62.630;17.936;2022-09-13T11:39:56;99985.27;;;25.99;34.89
72707;BME280;62517;62.630;17.936;2022-09-13T11:42:39;99984.47;;;25.96;34.93
72707;BME280;62517;62.630;17.936;2022-09-13T11:45:18;99982.65;;;25.87;34.90
72707;BME280;62517;62.630;17.936;2022-09-13T11:48:08;99978.25;;;25.92;34.87
72707;BME280;62517;62.630;17.936;2022-09-13T11:50:50;99979.09;;;25.96;34.89
72707;BME280;62517;62.630;17.936;2022-09-13T11:53:42;99975.47;;;25.99;34.90
72707;BME280;62517;62.630;17.936;2022-09-13T11:56:19;99975.52;;;25.97;34.85
72707;BME280;62517;62.630;17.936;2022-09-13T11:58:52;99975.45;;;25.88;34.93
72707;BME280;62517;62.630;17.936;2022-09-13T12:01:27;99973.34;;;25.86;34.99
72707;BME280;62517;62.630;17.936;2022-09-13T12:03:59;99966.20;;;25.81;34.99
72707;BME280;62517;62.630;17.936;2022-09-13T12:06:32;99971.33;;;25.87;34.96
72707;BME280;62517;62.630;17.936;2022-09-13T12:09:06;99969.24;;;25.96;34.99
72707;BME280;62517;62.630;17.936;2022-09-13T12:11:42;99969.90;;;25.84;34.91
72707;BME280;62517;62.630;17.936;2022-09-13T12:14:14;99973.95;;;25.98;34.95
72707;BME280;62517;62.630;17.936;2022-09-13T12:16:47;99973.10;;;25.76;34.93
72707;BME280;62517;62.630;17.936;2022-09-13T12:19:21;99976.89;;;25.98;34.97
72707;BME280;62517;62.630;17.936;2022-09-13T12:21:52;99973.20;;;25.85;34.97
72707;BME280;62517;62.630;17.936;2022-09-13T12:24:36;99971.84;;;25.91;34.92
72707;BME280;62517;62.630;17.936;2022-09-13T12:27:09;99967.77;;;25.83;34.98
72707;BME280;62517;62.630;17.936;2022-09-13T12:29:44;99968.98;;;25.81;34.99
72707;BME280;62517;62.630;17.936;2022-09-13T12:32:16;99965.39;;;25.78;35.02
72707;BME280;62517;62.630;17.936;2022-09-13T12:34:49;99966.25;;;25.71;35.02
72707;BME280;62517;62.630;17.936;2022-09-13T12:37:34;99967.30;;;25.88;34.98
72707;BME280;62517;62.630;17.936;2022-09-13T12:40:15;99961.93;;;25.80;35.15
72707;BME280;62517;62.630;17.936;2022-09-13T12:42:59;99954.76;;;25.70;34.96
72707;BME280;62517;62.630;17.936;2022-09-13T12:45:41;99952.22;;;25.78;35.08
72707;BME280;62517;62.630;17.936;2022-09-13T12:48:22;99943.40;;;25.81;35.01
72707;BME280;62517;62.630;17.936;2022-09-13T12:51:05;99948.83;;;25.70;35.00
72707;BME280;62517;62.630;17.936;2022-09-13T12:54:01;99939.51;;;25.69;35.14
72707;BME280;62517;62.630;17.936;2022-09-13T12:56:47;99932.05;;;25.80;34.95
72707;BME280;62517;62.630;17.936;2022-09-13T12:59:31;99929.37;;;25.79;35.06
72707;BME280;62517;62.630;17.936;2022-09-13T13:02:23;99926.98;;;25.78;35.07
72707;BME280;62517;62.630;17.936;2022-09-13T13:04:56;99925.40;;;25.88;35.07
72707;BME280;62517;62.630;17.936;2022-09-13T13:07:27;99924.32;;;25.75;35.14
72707;BME280;62517;62.630;17.936;2022-09-13T13:09:58;99927.01;;;25.75;35.17
72707;BME280;62517;62.630;17.936;2022-09-13T13:12:30;99921.53;;;25.80;35.12
72707;BME280;62517;62.630;17.936;2022-09-13T13:14:59;99916.25;;;25.83;35.13
72707;BME280;62517;62.630;17.936;2022-09-13T13:17:46;99922.55;;;25.77;35.12
72707;BME280;62517;62.630;17.936;2022-09-13T13:21:05;99920.20;;;25.77;35.13
72707;BME280;62517;62.630;17.936;2022-09-13T13:23:47;99922.57;;;25.78;35.18
72707;BME280;62517;62.630;17.936;2022-09-13T13:27:33;99925.09;;;25.77;35.21
72707;BME280;62517;62.630;17.936;2022-09-13T13:33:46;99917.73;;;25.70;35.18
72707;BME280;62517;62.630;17.936;2022-09-13T13:36:24;99910.31;;;25.76;35.15
72707;BME280;62517;62.630;17.936;2022-09-13T13:38:54;99907.48;;;25.68;35.24
72707;BME280;62517;62.630;17.936;2022-09-13T13:41:52;99902.38;;;25.80;35.24
72707;BME280;62517;62.630;17.936;2022-09-13T13:45:04;99894.74;;;25.65;35.25
72707;BME280;62517;62.630;17.936;2022-09-13T13:48:04;99896.06;;;25.63;35.23
72707;BME280;62517;62.630;17.936;2022-09-13T13:50:34;99889.11;;;25.75;35.19
72707;BME280;62517;62.630;17.936;2022-09-13T13:53:32;99888.13;;;25.61;35.18
72707;BME280;62517;62.630;17.936;2022-09-13T13:56:07;99876.99;;;25.79;35.08
72707;BME280;62517;62.630;17.936;2022-09-13T13:58:48;99878.43;;;25.66;35.16
72707;BME280;62517;62.630;17.936;2022-09-13T14:01:22;99876.17;;;25.69;35.14
72707;BME280;62517;62.630;17.936;2022-09-13T14:05:06;99870.90;;;25.62;35.08
72707;BME280;62517;62.630;17.936;2022-09-13T14:08:06;99859.72;;;25.62;35.16
72707;BME280;62517;62.630;17.936;2022-09-13T14:10:47;99858.54;;;25.64;35.18
72707;BME280;62517;62.630;17.936;2022-09-13T14:13:37;99860.79;;;25.68;35.13
72707;BME280;62517;62.630;17.936;2022-09-13T14:16:15;99853.12;;;25.57;35.11
72707;BME280;62517;62.630;17.936;2022-09-13T14:19:22;99861.51;;;25.68;35.14
72707;BME280;62517;62.630;17.936;2022-09-13T14:22:06;99853.40;;;25.61;35.18
72707;BME280;62517;62.630;17.936;2022-09-13T14:24:39;99851.34;;;25.56;35.18
72707;BME280;62517;62.630;17.936;2022-09-13T14:27:13;99852.72;;;25.61;35.11
72707;BME280;62517;62.630;17.936;2022-09-13T14:29:47;99844.04;;;25.59;35.16
72707;BME280;62517;62.630;17.936;2022-09-13T14:32:18;99854.28;;;25.56;35.14
72707;BME280;62517;62.630;17.936;2022-09-13T14:34:53;99845.25;;;25.58;35.19
72707;BME280;62517;62.630;17.936;2022-09-13T14:37:26;99845.92;;;25.58;35.16
72707;BME280;62517;62.630;17.936;2022-09-13T14:39:56;99845.04;;;25.63;35.15
72707;BME280;62517;62.630;17.936;2022-09-13T14:42:36;99839.57;;;25.47;35.11
72707;BME280;62517;62.630;17.936;2022-09-13T14:45:05;99836.58;;;25.62;35.14
72707;BME280;62517;62.630;17.936;2022-09-13T14:47:37;99829.66;;;25.59;35.11
